createdAt,value
2022-10-17T00:00:12.206Z,24.70
2022-10-17T00:03:01.139Z,16.70
2022-10-17T00:05:30.321Z,20.70
2022-10-17T00:07:59.044Z,20.60
2022-10-17T00:10:27.804Z,23.10
2022-10-17T00:12:56.467Z,18.70
2022-10-17T00:15:27.950Z,23.80
2022-10-17T00:17:56.842Z,19.50
2022-10-17T00:20:26.047Z,22.00
2022-10-17T00:22:57.788Z,20.70
2022-10-17T00:25:26.485Z,20.40
2022-10-17T00:27:55.080Z,17.30
2022-10-17T00:30:23.668Z,13.80
2022-10-17T00:32:52.684Z,17.20
2022-10-17T00:35:21.651Z,15.90
2022-10-17T00:37:50.621Z,19.60
2022-10-17T00:40:19.593Z,20.30
2022-10-17T00:42:51.431Z,18.70
2022-10-17T00:45:31.776Z,20.10
2022-10-17T00:48:08.660Z,20.10
2022-10-17T00:50:40.978Z,19.80
2022-10-17T00:53:10.415Z,23.00
2022-10-17T00:55:48.992Z,19.90
2022-10-17T00:58:19.452Z,24.60
2022-10-17T01:00:48.897Z,25.60
2022-10-17T01:03:17.611Z,20.70
2022-10-17T01:05:46.940Z,26.80
2022-10-17T01:08:17.742Z,23.90
2022-10-17T01:11:13.465Z,23.40
2022-10-17T01:13:58.729Z,21.30
2022-10-17T01:20:18.743Z,24.20
2022-10-17T01:22:55.432Z,21.90
2022-10-17T01:25:54.229Z,22.80
2022-10-17T01:28:56.419Z,24.70
2022-10-17T01:31:51.616Z,23.90
2022-10-17T01:34:59.384Z,18.50
2022-10-17T01:37:38.048Z,18.90
2022-10-17T01:40:38.840Z,24.10
2022-10-17T01:43:26.947Z,30.10
2022-10-17T01:46:07.589Z,22.10
2022-10-17T01:48:40.375Z,21.60
2022-10-17T01:51:21.925Z,24.60
2022-10-17T01:54:00.891Z,23.50
2022-10-17T01:56:33.245Z,26.80
2022-10-17T01:59:11.735Z,22.40
2022-10-17T02:01:44.160Z,25.60
2022-10-17T02:06:44.389Z,23.30
2022-10-17T02:09:28.308Z,28.10
2022-10-17T02:12:27.742Z,19.60
2022-10-17T02:15:27.327Z,19.60
2022-10-17T02:18:16.060Z,17.50
2022-10-17T02:21:14.973Z,14.30
2022-10-17T02:24:01.608Z,22.10
2022-10-17T02:26:51.715Z,17.10
2022-10-17T02:29:34.890Z,17.00
2022-10-17T02:32:10.374Z,16.30
2022-10-17T02:34:50.900Z,21.40
2022-10-17T02:40:43.595Z,18.60
2022-10-17T02:43:13.439Z,16.40
2022-10-17T02:45:42.276Z,20.40
2022-10-17T02:48:47.503Z,16.80
2022-10-17T02:51:42.767Z,14.70
2022-10-17T02:54:40.291Z,14.60
2022-10-17T02:57:19.302Z,13.40
2022-10-17T02:59:49.424Z,18.30
2022-10-17T03:02:18.667Z,21.60
2022-10-17T03:18:30.784Z,20.70
2022-10-17T03:21:01.396Z,25.50
2022-10-17T03:23:30.507Z,22.00
2022-10-17T03:26:03.097Z,22.50
2022-10-17T03:28:31.849Z,31.40
2022-10-17T03:31:06.512Z,20.20
2022-10-17T03:33:37.630Z,25.30
2022-10-17T03:36:16.578Z,34.10
2022-10-17T03:38:46.678Z,37.60
2022-10-17T03:41:15.549Z,33.90
2022-10-17T03:43:44.556Z,24.80
2022-10-17T03:46:14.129Z,30.40
2022-10-17T03:48:43.038Z,23.60
2022-10-17T03:51:12.522Z,24.00
2022-10-17T03:53:47.876Z,25.10
2022-10-17T03:56:24.184Z,24.00
2022-10-17T03:59:06.317Z,21.40
2022-10-17T04:01:39.467Z,27.60
2022-10-17T04:04:10.315Z,22.80
2022-10-17T04:06:39.324Z,23.30
2022-10-17T04:09:08.613Z,20.50
2022-10-17T04:11:49.122Z,19.00
2022-10-17T04:14:21.485Z,14.70
2022-10-17T04:16:54.859Z,26.50
2022-10-17T04:20:02.533Z,40.80
2022-10-17T04:22:32.652Z,29.20
2022-10-17T04:25:03.001Z,32.50
2022-10-17T04:28:20.289Z,21.20
2022-10-17T04:31:41.270Z,22.10
2022-10-17T04:34:55.303Z,28.30
2022-10-17T04:37:25.747Z,23.30
2022-10-17T04:39:56.050Z,23.00
2022-10-17T04:42:25.013Z,26.50
2022-10-17T04:44:58.033Z,35.00
2022-10-17T05:15:18.901Z,29.50
2022-10-17T05:17:47.829Z,20.60
2022-10-17T05:20:23.060Z,28.50
2022-10-17T05:22:51.470Z,25.50
2022-10-17T05:25:21.480Z,20.00
2022-10-17T05:27:51.108Z,26.90
2022-10-17T05:30:19.355Z,19.60
2022-10-17T05:49:48.525Z,26.20
2022-10-17T05:52:34.633Z,23.30
2022-10-17T05:55:10.781Z,24.30
2022-10-17T05:57:40.115Z,21.60
2022-10-17T06:00:13.164Z,22.20
2022-10-17T06:02:46.356Z,27.30
2022-10-17T06:05:17.078Z,20.20
2022-10-17T06:07:45.429Z,29.00
2022-10-17T06:10:18.357Z,20.30
2022-10-17T06:12:46.403Z,27.30
2022-10-17T06:35:01.045Z,26.80
2022-10-17T06:37:36.513Z,32.40
2022-10-17T06:40:11.990Z,22.20
2022-10-17T06:42:41.235Z,28.50
2022-10-17T06:45:24.358Z,23.90
2022-10-17T06:48:36.377Z,28.10
2022-10-17T06:51:31.613Z,27.90
2022-10-17T07:31:09.459Z,28.50
2022-10-17T07:33:41.261Z,31.90
2022-10-17T07:36:09.655Z,21.20
2022-10-17T07:38:38.539Z,31.70
2022-10-17T07:41:09.799Z,23.30
2022-10-17T07:43:38.691Z,28.80
2022-10-17T07:46:06.652Z,30.70
2022-10-17T07:48:35.332Z,25.10
2022-10-17T07:51:06.113Z,24.40
2022-10-17T07:53:46.443Z,20.70
2022-10-17T07:56:17.736Z,30.30
2022-10-17T07:58:48.576Z,22.70
2022-10-17T08:01:17.482Z,33.10
2022-10-17T08:03:48.962Z,22.70
2022-10-17T08:06:18.302Z,22.00
2022-10-17T08:08:47.433Z,30.70
2022-10-17T08:11:16.010Z,27.50
2022-10-17T08:13:43.846Z,25.30
2022-10-17T08:16:47.226Z,25.70
2022-10-17T08:19:32.612Z,32.60
2022-10-17T08:22:01.868Z,31.10
2022-10-17T08:24:29.631Z,25.50
2022-10-17T08:26:57.937Z,23.30
2022-10-17T08:29:25.735Z,29.60
2022-10-17T08:31:58.540Z,30.10
2022-10-17T08:34:28.951Z,28.80
2022-10-17T08:36:56.937Z,24.90
2022-10-17T08:39:24.914Z,24.40
2022-10-17T08:42:10.927Z,31.20
2022-10-17T08:58:00.045Z,19.20
2022-10-17T09:00:33.864Z,17.20
2022-10-17T09:03:40.004Z,22.50
2022-10-17T09:06:46.772Z,19.50
2022-10-17T09:09:46.823Z,18.30
2022-10-17T09:17:00.333Z,23.20
2022-10-17T09:19:41.164Z,21.30
2022-10-17T09:22:22.318Z,21.20
2022-10-17T09:25:10.422Z,17.60
2022-10-17T09:27:47.193Z,18.30
2022-10-17T09:30:45.925Z,11.50
2022-10-17T09:33:56.379Z,20.10
2022-10-17T09:36:39.626Z,9.20
2022-10-17T09:39:32.583Z,10.30
2022-10-17T09:42:04.497Z,17.50
2022-10-17T09:45:26.456Z,12.60
2022-10-17T09:48:45.712Z,15.90
2022-10-17T09:51:25.867Z,12.60
2022-10-17T09:54:05.751Z,13.10
2022-10-17T09:57:07.844Z,10.60
2022-10-17T10:00:03.117Z,11.90
2022-10-17T10:06:34.887Z,13.00
2022-10-17T10:09:26.031Z,12.90
2022-10-17T10:23:17.571Z,15.60
2022-10-17T10:42:47.450Z,10.30
2022-10-17T10:45:46.470Z,13.70
2022-10-17T10:48:24.825Z,12.30
2022-10-17T10:51:24.669Z,13.00
2022-10-17T10:54:20.200Z,5.50
2022-10-17T10:57:08.309Z,9.20
2022-10-17T10:59:51.251Z,14.10
2022-10-17T11:02:44.353Z,6.40
2022-10-17T11:05:28.071Z,6.40
2022-10-17T11:08:14.939Z,4.40
2022-10-17T11:11:23.872Z,5.30
2022-10-17T11:17:41.639Z,4.70
2022-10-17T11:20:09.566Z,4.80
2022-10-17T11:22:55.459Z,6.40
2022-10-17T11:25:40.734Z,7.10
2022-10-17T11:28:25.387Z,9.50
2022-10-17T11:53:44.002Z,7.90
2022-10-17T11:56:53.603Z,7.10
2022-10-17T12:00:07.652Z,4.30
2022-10-17T12:02:50.454Z,8.60
2022-10-17T12:06:30.233Z,9.40
2022-10-17T12:09:32.049Z,5.40
2022-10-17T12:12:04.347Z,7.60
2022-10-17T12:14:46.473Z,14.10
